Time;durP1;ratioP1;P1;durP2;ratioP2;P2;SDS_P1;SDS_P2;PMS_P1;PMS_P2;Temp;Humidity;BMP_temperature;BMP_pressure;BME280_temperature;BME280_humidity;BME280_pressure;Samples;Min_cycle;Max_cycle;Signal;HPM_P1;HPM_P2
2023/08/07 00:02:15;;;;;;;26.63;24.40;;;;;;;;;;5080255;28;20450;-82
2023/08/07 00:04:42;;;;;;;27.13;25.20;;;;;;;;;;5080424;28;20456;-83
2023/08/07 00:07:09;;;;;;;26.27;24.37;;;;;;;;;;5080572;28;20465;-81
2023/08/07 00:09:37;;;;;;;25.60;23.80;;;;;;;;;;5080427;28;20457;-82
2023/08/07 00:12:07;;;;;;;25.97;23.83;;;;;;;;;;5080670;28;20807;-82
2023/08/07 00:14:34;;;;;;;27.90;25.77;;;;;;;;;;5080978;28;20446;-84
2023/08/07 00:17:02;;;;;;;27.23;25.33;;;;;;;;;;5096585;28;20462;-84
2023/08/07 00:19:29;;;;;;;25.23;23.53;;;;;;;;;;5087121;28;20487;-82
2023/08/07 00:21:56;;;;;;;25.87;23.97;;;;;;;;;;5080855;28;20997;-83
2023/08/07 00:24:23;;;;;;;27.47;25.00;;;;;;;;;;5079626;28;20457;-83
2023/08/07 00:26:52;;;;;;;24.33;22.73;;;;;;;;;;5080769;28;20460;-81
2023/08/07 00:29:19;;;;;;;27.07;24.60;;;;;;;;;;5081426;28;20438;-82
2023/08/07 00:31:46;;;;;;;27.67;24.97;;;;;;;;;;5079671;28;20823;-82
2023/08/07 00:34:13;;;;;;;26.63;24.50;;;;;;;;;;5078978;28;20449;-82
2023/08/07 00:36:40;;;;;;;28.30;25.77;;;;;;;;;;5080762;28;20478;-83
2023/08/07 00:39:08;;;;;;;26.43;24.30;;;;;;;;;;5079238;28;20481;-82
2023/08/07 00:41:35;;;;;;;29.17;26.97;;;;;;;;;;5079766;28;20457;-83
2023/08/07 00:44:03;;;;;;;27.07;25.07;;;;;;;;;;5078799;28;21001;-81
2023/08/07 00:46:32;;;;;;;26.60;24.80;;;;;;;;;;5079109;28;20469;-81
2023/08/07 00:49:00;;;;;;;27.00;25.10;;;;;;;;;;5079276;28;20470;-82
2023/08/07 00:51:27;;;;;;;27.03;25.20;;;;;;;;;;5079454;28;20457;-83
2023/08/07 00:53:54;;;;;;;27.63;24.43;;;;;;;;;;5077943;28;20449;-81
2023/08/07 00:56:33;;;;;;;26.30;24.20;;;;;;;;;;5078187;28;20444;-83
2023/08/07 00:59:03;;;;;;;26.43;24.60;;;;;;;;;;5078880;28;20485;-83
2023/08/07 01:01:31;;;;;;;28.03;25.90;;;;;;;;;;5078939;28;20442;-82
2023/08/07 01:03:58;;;;;;;26.80;25.00;;;;;;;;;;5078504;28;20453;-81
2023/08/07 01:06:25;;;;;;;26.80;25.00;;;;;;;;;;5078641;28;20474;-82
2023/08/07 01:08:52;;;;;;;28.70;26.37;;;;;;;;;;5077978;28;20465;-82
2023/08/07 01:11:23;;;;;;;27.37;25.17;;;;;;;;;;5078974;28;20442;-82
2023/08/07 01:13:56;;;;;;;25.43;23.73;;;;;;;;;;5078729;28;20438;-81
2023/08/07 01:16:30;;;;;;;27.80;25.70;;;;;;;;;;5078662;28;20515;-82
2023/08/07 01:18:58;;;;;;;25.20;23.40;;;;;;;;;;5077277;28;21072;-82
2023/08/07 01:21:25;;;;;;;28.30;26.13;;;;;;;;;;5078663;28;20815;-81
2023/08/07 01:23:54;;;;;;;27.10;25.10;;;;;;;;;;5078077;28;20955;-83
2023/08/07 01:26:23;;;;;;;28.53;26.23;;;;;;;;;;5079379;28;20466;-82
2023/08/07 01:28:55;;;;;;;30.60;28.00;;;;;;;;;;5079594;28;20438;-82
2023/08/07 01:31:24;;;;;;;27.10;25.17;;;;;;;;;;5078100;28;20422;-83
2023/08/07 01:33:57;;;;;;;28.17;26.03;;;;;;;;;;5077474;28;20434;-82
2023/08/07 01:36:25;;;;;;;29.73;27.27;;;;;;;;;;5077975;28;20450;-81
2023/08/07 01:38:54;;;;;;;29.97;27.87;;;;;;;;;;5077667;28;20529;-82
2023/08/07 01:41:21;;;;;;;30.23;27.50;;;;;;;;;;5077621;28;20461;-82
2023/08/07 01:43:49;;;;;;;28.87;26.57;;;;;;;;;;5077611;28;20450;-83
2023/08/07 01:46:16;;;;;;;30.23;27.50;;;;;;;;;;5078199;28;20964;-82
2023/08/07 01:48:43;;;;;;;28.17;25.60;;;;;;;;;;5078380;28;20449;-81
2023/08/07 01:51:12;;;;;;;29.03;26.77;;;;;;;;;;5077926;28;20486;-82
2023/08/07 01:53:39;;;;;;;31.47;28.37;;;;;;;;;;5077277;28;20481;-83
2023/08/07 01:56:08;;;;;;;30.03;27.40;;;;;;;;;;5077792;28;20447;-81
2023/08/07 01:58:35;;;;;;;31.17;28.77;;;;;;;;;;5078263;28;20485;-81
2023/08/07 02:01:02;;;;;;;29.70;27.20;;;;;;;;;;5077237;28;20441;-83
2023/08/07 02:03:29;;;;;;;30.03;27.63;;;;;;;;;;5077236;28;20465;-81
2023/08/07 02:06:03;;;;;;;29.90;27.07;;;;;;;;;;5077279;28;20987;-81
2023/08/07 02:08:30;;;;;;;27.50;25.13;;;;;;;;;;5077260;28;20426;-83
2023/08/07 02:10:57;;;;;;;29.27;26.87;;;;;;;;;;5076916;28;20931;-82
2023/08/07 02:13:25;;;;;;;29.90;27.20;;;;;;;;;;5075709;28;20461;-82
2023/08/07 02:15:52;;;;;;;28.90;26.63;;;;;;;;;;5076687;28;20791;-83
2023/08/07 02:18:19;;;;;;;29.17;26.80;;;;;;;;;;5076764;28;20488;-82
2023/08/07 02:20:46;;;;;;;29.70;27.00;;;;;;;;;;5077007;28;20445;-81
2023/08/07 02:23:14;;;;;;;29.23;26.53;;;;;;;;;;5076250;28;20484;-81
2023/08/07 02:25:41;;;;;;;29.37;26.90;;;;;;;;;;5077147;28;20462;-82
2023/08/07 02:28:08;;;;;;;29.43;27.00;;;;;;;;;;5076472;28;20465;-82
2023/08/07 02:30:36;;;;;;;29.87;27.30;;;;;;;;;;5080255;28;20446;-82
2023/08/07 02:33:03;;;;;;;32.37;29.27;;;;;;;;;;5080586;28;20424;-81
2023/08/07 02:35:30;;;;;;;31.07;28.63;;;;;;;;;;5081191;28;20470;-83
2023/08/07 02:37:58;;;;;;;29.17;26.47;;;;;;;;;;5080694;28;20472;-83
2023/08/07 02:40:25;;;;;;;30.20;27.90;;;;;;;;;;5080413;28;20477;-82
2023/08/07 02:42:52;;;;;;;29.80;27.53;;;;;;;;;;5080398;28;20441;-83
2023/08/07 02:45:19;;;;;;;32.23;29.53;;;;;;;;;;5080881;28;20509;-81
2023/08/07 02:47:48;;;;;;;32.00;29.30;;;;;;;;;;5080178;28;20519;-83
2023/08/07 02:50:15;;;;;;;33.50;30.60;;;;;;;;;;5079938;28;20529;-81
2023/08/07 02:52:42;;;;;;;30.87;28.17;;;;;;;;;;5079342;28;20445;-82
2023/08/07 02:55:09;;;;;;;30.57;28.13;;;;;;;;;;5079983;28;20473;-83
2023/08/07 02:57:36;;;;;;;31.97;29.20;;;;;;;;;;5079954;28;20449;-81
2023/08/07 03:00:06;;;;;;;29.40;27.10;;;;;;;;;;5078837;28;20481;-83
2023/08/07 03:02:33;;;;;;;28.23;25.90;;;;;;;;;;5078894;28;20489;-81
2023/08/07 03:05:01;;;;;;;28.83;26.57;;;;;;;;;;5079649;28;20458;-83
2023/08/07 03:07:37;;;;;;;29.47;27.07;;;;;;;;;;5082418;28;20481;-81
2023/08/07 03:10:04;;;;;;;27.07;25.13;;;;;;;;;;5082892;28;20468;-83
2023/08/07 03:12:32;;;;;;;28.60;26.37;;;;;;;;;;5080894;28;20449;-82
2023/08/07 03:14:59;;;;;;;32.57;29.43;;;;;;;;;;5079984;28;20566;-81
2023/08/07 03:17:26;;;;;;;29.27;26.97;;;;;;;;;;5080992;28;20541;-82
2023/08/07 03:19:53;;;;;;;29.80;27.60;;;;;;;;;;5084125;28;20477;-83
2023/08/07 03:22:22;;;;;;;29.23;26.93;;;;;;;;;;5084022;28;20474;-84
2023/08/07 03:24:49;;;;;;;30.50;27.50;;;;;;;;;;5092903;28;20452;-81
2023/08/07 03:27:16;;;;;;;28.20;26.00;;;;;;;;;;5083986;28;20775;-82
2023/08/07 03:29:43;;;;;;;28.37;26.07;;;;;;;;;;5084763;28;20438;-82
2023/08/07 03:32:10;;;;;;;29.00;26.33;;;;;;;;;;5083871;28;20453;-81
2023/08/07 03:34:37;;;;;;;29.37;26.90;;;;;;;;;;5084592;28;20454;-82
2023/08/07 03:37:04;;;;;;;37.77;30.10;;;;;;;;;;5082594;28;20470;-80
2023/08/07 03:39:33;;;;;;;28.87;26.33;;;;;;;;;;5082185;28;20486;-81
2023/08/07 03:42:00;;;;;;;29.90;27.33;;;;;;;;;;5082662;28;20442;-81
2023/08/07 03:44:27;;;;;;;24.73;22.83;;;;;;;;;;5083076;28;20935;-81
2023/08/07 03:46:56;;;;;;;30.30;27.57;;;;;;;;;;5083959;28;20511;-81
2023/08/07 03:49:23;;;;;;;31.40;28.60;;;;;;;;;;5083890;28;20450;-81
2023/08/07 03:51:50;;;;;;;30.97;28.33;;;;;;;;;;5084391;28;20446;-82
2023/08/07 03:54:17;;;;;;;30.83;27.73;;;;;;;;;;5090495;28;20437;-81
2023/08/07 03:56:46;;;;;;;30.13;27.60;;;;;;;;;;5101468;28;20454;-81
2023/08/07 03:59:13;;;;;;;32.43;29.03;;;;;;;;;;5092212;28;20943;-81
2023/08/07 04:01:40;;;;;;;29.50;27.00;;;;;;;;;;5083204;28;20452;-81
2023/08/07 04:04:07;;;;;;;31.27;28.67;;;;;;;;;;5082365;28;20445;-82
2023/08/07 04:06:35;;;;;;;30.67;28.00;;;;;;;;;;5082405;28;20462;-82
2023/08/07 04:09:03;;;;;;;32.30;29.50;;;;;;;;;;5082178;28;20445;-83
2023/08/07 04:11:30;;;;;;;32.27;29.20;;;;;;;;;;5081840;28;20478;-82
2023/08/07 04:13:59;;;;;;;31.10;28.30;;;;;;;;;;5080392;28;20446;-82
2023/08/07 04:16:26;;;;;;;30.83;28.07;;;;;;;;;;5080821;28;20477;-82
2023/08/07 04:18:53;;;;;;;29.53;26.80;;;;;;;;;;5081145;28;20498;-82
2023/08/07 04:21:20;;;;;;;28.43;26.13;;;;;;;;;;5081988;28;20453;-82
2023/08/07 04:23:47;;;;;;;27.93;25.83;;;;;;;;;;5081379;28;20455;-82
2023/08/07 04:26:14;;;;;;;27.33;24.93;;;;;;;;;;5082868;28;20439;-83
2023/08/07 04:28:41;;;;;;;29.60;26.90;;;;;;;;;;5076649;28;20966;-83
2023/08/07 04:31:09;;;;;;;27.83;25.73;;;;;;;;;;5077075;28;20446;-82
2023/08/07 04:33:37;;;;;;;27.73;25.57;;;;;;;;;;5076578;28;20446;-83
2023/08/07 04:36:04;;;;;;;27.40;25.40;;;;;;;;;;5076947;28;20511;-84
2023/08/07 04:38:31;;;;;;;26.87;24.97;;;;;;;;;;5077265;28;20441;-82
2023/08/07 04:40:58;;;;;;;28.40;26.10;;;;;;;;;;5076071;28;20486;-82
2023/08/07 04:43:25;;;;;;;25.40;23.70;;;;;;;;;;5076503;28;20460;-82
2023/08/07 04:45:52;;;;;;;27.00;25.07;;;;;;;;;;5076128;28;20519;-83
2023/08/07 04:48:22;;;;;;;25.60;23.90;;;;;;;;;;5076200;28;20445;-81
2023/08/07 04:50:49;;;;;;;27.00;25.10;;;;;;;;;;5075902;28;20405;-83
2023/08/07 04:53:16;;;;;;;25.10;23.33;;;;;;;;;;5074442;28;21059;-83
2023/08/07 04:55:43;;;;;;;25.33;23.53;;;;;;;;;;5076203;28;20473;-83
2023/08/07 04:58:10;;;;;;;27.67;25.47;;;;;;;;;;5076124;28;20446;-82
2023/08/07 05:00:37;;;;;;;25.07;23.30;;;;;;;;;;5076777;28;20484;-80
2023/08/07 05:03:04;;;;;;;26.77;24.77;;;;;;;;;;5074296;28;20469;-79
2023/08/07 05:05:33;;;;;;;25.30;23.60;;;;;;;;;;5075034;28;20444;-80
2023/08/07 05:08:00;;;;;;;25.83;24.03;;;;;;;;;;5075466;28;20452;-79
2023/08/07 05:10:27;;;;;;;25.37;23.47;;;;;;;;;;5075847;28;20438;-79
2023/08/07 05:12:55;;;;;;;23.70;22.00;;;;;;;;;;5074381;28;20482;-79
2023/08/07 05:15:22;;;;;;;23.47;21.87;;;;;;;;;;5075618;28;20448;-79
2023/08/07 05:17:49;;;;;;;25.47;23.77;;;;;;;;;;5075518;28;20485;-79
2023/08/07 05:20:17;;;;;;;24.23;22.70;;;;;;;;;;5074708;28;20539;-79
2023/08/07 05:22:45;;;;;;;24.80;23.27;;;;;;;;;;5073654;28;20954;-79
2023/08/07 05:25:15;;;;;;;24.90;23.30;;;;;;;;;;5074292;28;20465;-79
2023/08/07 05:27:42;;;;;;;25.00;23.20;;;;;;;;;;5074767;28;20529;-77
2023/08/07 05:30:09;;;;;;;25.27;23.47;;;;;;;;;;5075072;28;20446;-80
2023/08/07 05:32:37;;;;;;;26.27;24.20;;;;;;;;;;5074964;28;20442;-82
2023/08/07 05:35:04;;;;;;;24.07;22.47;;;;;;;;;;5073839;28;20476;-79
2023/08/07 05:37:38;;;;;;;24.40;23.00;;;;;;;;;;5075023;28;20445;-80
2023/08/07 05:40:07;;;;;;;23.50;22.03;;;;;;;;;;5074458;28;20481;-80
2023/08/07 05:42:35;;;;;;;24.90;23.27;;;;;;;;;;5074235;28;20449;-78
2023/08/07 05:45:02;;;;;;;23.20;21.87;;;;;;;;;;5074209;28;20504;-79
2023/08/07 05:47:29;;;;;;;24.73;22.83;;;;;;;;;;5074059;28;20470;-79
2023/08/07 05:49:56;;;;;;;25.40;23.80;;;;;;;;;;5073983;28;20442;-79
2023/08/07 05:52:24;;;;;;;23.33;21.93;;;;;;;;;;5073712;28;20456;-79
2023/08/07 05:54:51;;;;;;;24.90;23.30;;;;;;;;;;5073583;28;20553;-79
2023/08/07 05:57:20;;;;;;;24.20;22.80;;;;;;;;;;5074097;28;20449;-78
2023/08/07 05:59:47;;;;;;;26.67;25.03;;;;;;;;;;5073795;28;20553;-79
2023/08/07 06:02:14;;;;;;;24.70;23.20;;;;;;;;;;5073259;28;20472;-80
2023/08/07 06:04:42;;;;;;;25.77;24.10;;;;;;;;;;5073119;28;20465;-79
2023/08/07 06:07:09;;;;;;;26.37;24.37;;;;;;;;;;5073937;28;20802;-79
2023/08/07 06:09:36;;;;;;;25.17;23.40;;;;;;;;;;5073937;28;20502;-79
2023/08/07 06:12:04;;;;;;;25.60;23.90;;;;;;;;;;5073683;28;20441;-79
2023/08/07 06:14:33;;;;;;;26.23;24.40;;;;;;;;;;5077252;28;20441;-78
2023/08/07 06:17:01;;;;;;;25.00;23.43;;;;;;;;;;5093566;28;20465;-80
2023/08/07 06:19:28;;;;;;;26.20;24.30;;;;;;;;;;5094039;28;20441;-77
2023/08/07 06:21:55;;;;;;;26.50;24.80;;;;;;;;;;5093774;28;20460;-79
2023/08/07 06:24:23;;;;;;;25.73;24.13;;;;;;;;;;5092611;28;20456;-79
2023/08/07 06:26:51;;;;;;;26.03;24.20;;;;;;;;;;5094244;28;20461;-79
2023/08/07 06:29:18;;;;;;;26.10;24.30;;;;;;;;;;5094773;28;20448;-79
2023/08/07 06:31:46;;;;;;;25.63;24.20;;;;;;;;;;5094580;28;20531;-79
2023/08/07 06:34:13;;;;;;;24.83;23.23;;;;;;;;;;5085134;28;20453;-79
2023/08/07 06:36:43;;;;;;;25.20;23.70;;;;;;;;;;5073982;28;20486;-78
2023/08/07 06:39:10;;;;;;;24.07;22.73;;;;;;;;;;5074420;28;20426;-80
2023/08/07 06:41:37;;;;;;;24.90;23.60;;;;;;;;;;5090401;28;20480;-79
2023/08/07 06:44:04;;;;;;;24.63;23.13;;;;;;;;;;5085104;28;20465;-80
2023/08/07 06:46:31;;;;;;;24.93;23.47;;;;;;;;;;5090369;28;20480;-79
2023/08/07 06:48:59;;;;;;;25.13;23.80;;;;;;;;;;5088729;28;20472;-78
2023/08/07 06:51:26;;;;;;;25.13;23.93;;;;;;;;;;5085800;28;20446;-78
2023/08/07 06:53:55;;;;;;;25.97;24.57;;;;;;;;;;5093191;28;20430;-80
2023/08/07 06:56:22;;;;;;;25.57;24.17;;;;;;;;;;5091771;28;20470;-80
2023/08/07 06:58:49;;;;;;;25.17;23.97;;;;;;;;;;5073578;28;20953;-78
2023/08/07 07:01:16;;;;;;;26.73;25.30;;;;;;;;;;5078416;28;20486;-79
2023/08/07 07:03:45;;;;;;;24.93;23.73;;;;;;;;;;5073139;28;20448;-78
2023/08/07 07:06:14;;;;;;;23.50;22.17;;;;;;;;;;5077566;28;20807;-79
2023/08/07 07:08:41;;;;;;;24.83;23.53;;;;;;;;;;5093496;28;20504;-79
2023/08/07 07:11:08;;;;;;;24.83;23.63;;;;;;;;;;5093705;28;20402;-79
2023/08/07 07:13:35;;;;;;;24.63;23.33;;;;;;;;;;5093370;28;20551;-79
2023/08/07 07:16:03;;;;;;;26.53;25.13;;;;;;;;;;5083579;28;21002;-80
2023/08/07 07:18:30;;;;;;;27.33;25.50;;;;;;;;;;5078135;28;20422;-79
2023/08/07 07:21:00;;;;;;;26.97;25.50;;;;;;;;;;5076905;28;21016;-80
2023/08/07 07:23:29;;;;;;;27.27;25.87;;;;;;;;;;5077223;28;20459;-79
2023/08/07 07:25:57;;;;;;;26.90;25.60;;;;;;;;;;5076658;28;20485;-79
2023/08/07 07:28:24;;;;;;;26.70;25.07;;;;;;;;;;5077315;28;20785;-80
2023/08/07 07:30:51;;;;;;;27.50;25.67;;;;;;;;;;5077084;28;20788;-80
2023/08/07 07:33:18;;;;;;;24.20;22.90;;;;;;;;;;5076985;28;20453;-79
2023/08/07 07:35:45;;;;;;;24.33;22.93;;;;;;;;;;5077066;28;20485;-79
2023/08/07 07:38:12;;;;;;;26.80;25.20;;;;;;;;;;5076470;28;20434;-75
2023/08/07 07:40:40;;;;;;;27.23;25.73;;;;;;;;;;5073527;28;20488;-75
2023/08/07 07:43:08;;;;;;;25.60;24.10;;;;;;;;;;5073262;28;20424;-75
2023/08/07 07:45:35;;;;;;;25.60;24.20;;;;;;;;;;5073502;28;20465;-75
2023/08/07 07:48:02;;;;;;;24.23;22.73;;;;;;;;;;5072933;28;21089;-76
2023/08/07 07:50:30;;;;;;;26.27;24.57;;;;;;;;;;5073490;28;20446;-74
2023/08/07 07:52:57;;;;;;;27.50;26.00;;;;;;;;;;5072170;28;20778;-74
2023/08/07 07:55:24;;;;;;;29.23;27.63;;;;;;;;;;5072773;28;20447;-76
2023/08/07 07:57:52;;;;;;;30.93;28.97;;;;;;;;;;5072853;28;20422;-77
2023/08/07 08:00:20;;;;;;;33.47;31.57;;;;;;;;;;5072732;28;20481;-76
2023/08/07 08:02:47;;;;;;;36.10;33.70;;;;;;;;;;5072535;28;20476;-76
2023/08/07 08:05:15;;;;;;;35.60;33.17;;;;;;;;;;5072303;28;20481;-76
2023/08/07 08:07:44;;;;;;;34.43;32.50;;;;;;;;;;5072942;28;20939;-76
2023/08/07 08:10:12;;;;;;;36.80;34.30;;;;;;;;;;5073346;28;20441;-76
2023/08/07 08:12:39;;;;;;;37.37;35.13;;;;;;;;;;5084199;28;20514;-81
2023/08/07 08:15:08;;;;;;;34.47;32.20;;;;;;;;;;5096517;28;20475;-82
2023/08/07 08:17:35;;;;;;;33.83;31.67;;;;;;;;;;5087572;28;20487;-83
2023/08/07 08:20:02;;;;;;;32.30;30.50;;;;;;;;;;5099019;28;20452;-83
2023/08/07 08:22:29;;;;;;;32.77;30.77;;;;;;;;;;5099156;28;20479;-82
2023/08/07 08:24:56;;;;;;;31.30;29.50;;;;;;;;;;5098310;28;20464;-82
2023/08/07 08:27:25;;;;;;;30.83;28.93;;;;;;;;;;5099089;28;20444;-83
2023/08/07 08:29:52;;;;;;;30.20;28.50;;;;;;;;;;5099182;28;20471;-81
2023/08/07 08:32:20;;;;;;;30.20;28.40;;;;;;;;;;5099816;28;20445;-81
2023/08/07 08:34:49;;;;;;;31.30;29.40;;;;;;;;;;5097764;28;20820;-79
2023/08/07 08:37:16;;;;;;;28.70;27.20;;;;;;;;;;5095845;28;20539;-80
2023/08/07 08:39:43;;;;;;;28.27;26.47;;;;;;;;;;5096050;28;20472;-79
2023/08/07 08:42:12;;;;;;;27.43;25.87;;;;;;;;;;5096456;28;20476;-82
2023/08/07 08:44:40;;;;;;;28.07;26.43;;;;;;;;;;5082240;28;20489;-79
2023/08/07 08:47:08;;;;;;;27.30;25.80;;;;;;;;;;5081827;28;20445;-79
2023/08/07 08:49:37;;;;;;;32.30;29.60;;;;;;;;;;5095485;28;20453;-78
2023/08/07 08:52:04;;;;;;;38.03;34.50;;;;;;;;;;5094789;28;21044;-80
2023/08/07 08:54:32;;;;;;;32.10;29.50;;;;;;;;;;5094972;28;20441;-83
2023/08/07 08:56:59;;;;;;;32.47;29.87;;;;;;;;;;5091728;28;20441;-82
2023/08/07 08:59:26;;;;;;;32.33;29.87;;;;;;;;;;5095443;28;20491;-82
2023/08/07 09:01:54;;;;;;;30.27;28.27;;;;;;;;;;5094338;28;20480;-84
2023/08/07 09:04:21;;;;;;;33.30;30.60;;;;;;;;;;5095715;28;20449;-77
2023/08/07 09:06:49;;;;;;;31.33;29.20;;;;;;;;;;5094274;28;20476;-80
2023/08/07 09:09:18;;;;;;;33.27;30.97;;;;;;;;;;5095942;28;20441;-82
2023/08/07 09:11:46;;;;;;;31.50;29.33;;;;;;;;;;5095228;28;20477;-79
2023/08/07 09:14:16;;;;;;;33.63;31.27;;;;;;;;;;5094452;28;20941;-79
2023/08/07 09:16:44;;;;;;;32.43;30.13;;;;;;;;;;5094137;28;20443;-80
2023/08/07 09:19:11;;;;;;;31.93;29.60;;;;;;;;;;5096217;28;20481;-79
2023/08/07 09:21:38;;;;;;;31.23;29.03;;;;;;;;;;5095292;28;20488;-79
2023/08/07 09:24:07;;;;;;;35.10;32.70;;;;;;;;;;5094966;28;20453;-79
2023/08/07 09:26:34;;;;;;;32.63;30.33;;;;;;;;;;5094771;28;21049;-78
2023/08/07 09:29:02;;;;;;;31.77;29.23;;;;;;;;;;5092377;28;20452;-80
2023/08/07 09:31:30;;;;;;;31.40;29.10;;;;;;;;;;5092521;28;20506;-79
2023/08/07 09:34:02;;;;;;;29.27;26.90;;;;;;;;;;5094185;28;20550;-79
2023/08/07 09:36:31;;;;;;;29.17;27.20;;;;;;;;;;5095779;28;20473;-80
2023/08/07 09:38:58;;;;;;;30.07;27.70;;;;;;;;;;5095712;28;20461;-80
2023/08/07 09:41:27;;;;;;;28.73;26.20;;;;;;;;;;5095165;28;20481;-77
2023/08/07 09:43:55;;;;;;;28.30;26.20;;;;;;;;;;5095205;28;20501;-84
2023/08/07 09:46:22;;;;;;;30.00;27.53;;;;;;;;;;5096230;28;20461;-86
2023/08/07 09:48:49;;;;;;;29.20;27.20;;;;;;;;;;5097036;28;20453;-85
2023/08/07 09:51:15;;;;;;;29.20;27.13;;;;;;;;;;5095559;28;20453;-84
2023/08/07 09:53:42;;;;;;;28.17;26.27;;;;;;;;;;5095528;28;20514;-82
2023/08/07 09:56:09;;;;;;;26.70;25.00;;;;;;;;;;5095093;28;20500;-84
2023/08/07 09:58:37;;;;;;;25.60;24.20;;;;;;;;;;5095208;28;20472;-84
2023/08/07 10:01:05;;;;;;;24.50;22.97;;;;;;;;;;5081188;28;20456;-84
2023/08/07 10:03:33;;;;;;;23.93;22.03;;;;;;;;;;5074979;28;20448;-84
2023/08/07 10:06:00;;;;;;;23.70;22.27;;;;;;;;;;5075572;28;20466;-84
2023/08/07 10:08:28;;;;;;;26.90;25.03;;;;;;;;;;5075426;28;20446;-83
2023/08/07 10:10:55;;;;;;;24.03;22.23;;;;;;;;;;5075252;28;20434;-83
2023/08/07 10:13:23;;;;;;;21.23;19.70;;;;;;;;;;5075112;28;20444;-83
2023/08/07 10:15:52;;;;;;;25.30;23.80;;;;;;;;;;5074122;28;20539;-83
2023/08/07 10:18:21;;;;;;;25.67;24.10;;;;;;;;;;5075284;28;20446;-83
2023/08/07 10:20:48;;;;;;;24.73;23.20;;;;;;;;;;5075050;28;20448;-84
2023/08/07 10:23:17;;;;;;;25.10;23.17;;;;;;;;;;5075003;28;20461;-81
2023/08/07 10:25:45;;;;;;;25.63;24.07;;;;;;;;;;5075760;28;20473;-84
2023/08/07 10:28:15;;;;;;;27.17;25.27;;;;;;;;;;5075883;28;20536;-84
2023/08/07 10:30:42;;;;;;;27.73;25.93;;;;;;;;;;5075187;28;20444;-83
2023/08/07 10:33:12;;;;;;;28.00;25.87;;;;;;;;;;5074169;28;20425;-82
2023/08/07 10:35:45;;;;;;;26.50;24.77;;;;;;;;;;5074668;28;20466;-82
2023/08/07 10:38:12;;;;;;;79.07;51.83;;;;;;;;;;5075588;28;20433;-84
2023/08/07 10:40:54;;;;;;;32.83;30.33;;;;;;;;;;5074064;28;20451;-84
2023/08/07 10:43:25;;;;;;;28.37;26.43;;;;;;;;;;5073972;28;20767;-83
2023/08/07 10:45:52;;;;;;;29.20;27.30;;;;;;;;;;5074108;28;20460;-84
2023/08/07 10:48:22;;;;;;;31.63;29.33;;;;;;;;;;5074060;28;20445;-84
2023/08/07 10:50:58;;;;;;;30.53;28.40;;;;;;;;;;5075987;28;20468;-83
2023/08/07 10:53:30;;;;;;;29.50;27.30;;;;;;;;;;5077712;28;21212;-83
2023/08/07 10:55:59;;;;;;;30.73;28.23;;;;;;;;;;5083590;28;20453;-81
2023/08/07 10:58:27;;;;;;;33.67;31.07;;;;;;;;;;5079678;28;20437;-84
2023/08/07 11:01:14;;;;;;;33.20;30.80;;;;;;;;;;5079840;28;20516;-85
2023/08/07 11:03:44;;;;;;;34.70;32.40;;;;;;;;;;5078069;28;20875;-84
2023/08/07 11:06:11;;;;;;;34.40;32.17;;;;;;;;;;5078801;28;20453;-84
2023/08/07 11:08:38;;;;;;;34.50;32.40;;;;;;;;;;5078651;28;20442;-83
2023/08/07 11:11:06;;;;;;;34.33;31.87;;;;;;;;;;5079122;28;20456;-82
2023/08/07 11:13:33;;;;;;;34.37;31.77;;;;;;;;;;5078472;28;20452;-84
2023/08/07 11:16:00;;;;;;;31.77;29.77;;;;;;;;;;5079219;28;20481;-83
2023/08/07 11:18:27;;;;;;;29.60;27.70;;;;;;;;;;5079549;28;20441;-81
2023/08/07 11:20:56;;;;;;;30.00;28.03;;;;;;;;;;5079093;28;20784;-83
2023/08/07 11:23:24;;;;;;;28.60;26.70;;;;;;;;;;5078468;28;20477;-84
2023/08/07 11:25:51;;;;;;;29.47;27.37;;;;;;;;;;5078020;28;20514;-85
2023/08/07 11:28:19;;;;;;;31.03;28.53;;;;;;;;;;5077740;28;20466;-84
2023/08/07 11:30:46;;;;;;;29.97;28.07;;;;;;;;;;5078451;28;20461;-84
2023/08/07 11:33:13;;;;;;;33.10;30.60;;;;;;;;;;5079480;28;20477;-85
2023/08/07 11:35:42;;;;;;;35.47;32.77;;;;;;;;;;5082565;28;20808;-86
2023/08/07 11:38:11;;;;;;;34.83;32.17;;;;;;;;;;5078714;28;20469;-84
2023/08/07 11:40:38;;;;;;;34.40;31.80;;;;;;;;;;5078079;28;20445;-82
2023/08/07 11:43:05;;;;;;;37.83;34.93;;;;;;;;;;5082139;28;20485;-85
2023/08/07 11:45:32;;;;;;;35.50;32.70;;;;;;;;;;5079492;28;20511;-83
2023/08/07 11:47:59;;;;;;;33.97;31.23;;;;;;;;;;5081577;28;20556;-85
2023/08/07 11:50:26;;;;;;;33.37;31.07;;;;;;;;;;5079269;28;20441;-87
2023/08/07 11:52:53;;;;;;;34.10;31.50;;;;;;;;;;5077445;28;20458;-81
2023/08/07 11:55:22;;;;;;;36.30;33.70;;;;;;;;;;5078921;28;20959;-80
2023/08/07 11:57:49;;;;;;;36.33;33.47;;;;;;;;;;5076903;28;20449;-81
2023/08/07 12:00:16;;;;;;;35.33;32.83;;;;;;;;;;5077353;28;20441;-82
2023/08/07 12:02:44;;;;;;;33.23;30.90;;;;;;;;;;5078966;28;20489;-84
2023/08/07 12:05:12;;;;;;;33.03;30.43;;;;;;;;;;5077930;28;20493;-80
2023/08/07 12:07:39;;;;;;;33.20;30.30;;;;;;;;;;5077162;28;20489;-81
2023/08/07 12:10:08;;;;;;;27.87;25.67;;;;;;;;;;5077517;28;21072;-82
2023/08/07 12:12:37;;;;;;;25.43;23.70;;;;;;;;;;5076591;28;20438;-82
2023/08/07 12:15:05;;;;;;;27.40;23.40;;;;;;;;;;5074482;28;20881;-81
2023/08/07 12:17:32;;;;;;;23.93;22.53;;;;;;;;;;5075689;28;21329;-81
2023/08/07 12:20:00;;;;;;;21.60;20.30;;;;;;;;;;5077784;28;20489;-82
2023/08/07 12:22:29;;;;;;;21.97;20.37;;;;;;;;;;5077689;28;20808;-82
2023/08/07 12:24:56;;;;;;;22.00;20.47;;;;;;;;;;5082489;28;20502;-83
2023/08/07 12:27:26;;;;;;;21.63;19.83;;;;;;;;;;5081491;28;20445;-79
2023/08/07 12:29:54;;;;;;;22.50;20.83;;;;;;;;;;5084314;28;20449;-79
2023/08/07 12:32:21;;;;;;;21.20;19.67;;;;;;;;;;5076228;28;20465;-81
2023/08/07 12:34:50;;;;;;;21.30;19.87;;;;;;;;;;5080445;28;20455;-81
2023/08/07 12:37:17;;;;;;;20.87;19.63;;;;;;;;;;5096610;28;20810;-82
2023/08/07 12:39:44;;;;;;;22.90;21.00;;;;;;;;;;5096109;28;20444;-81
2023/08/07 12:42:11;;;;;;;24.60;22.90;;;;;;;;;;5095934;28;21044;-81
2023/08/07 12:44:38;;;;;;;24.20;22.87;;;;;;;;;;5096894;28;20528;-80
2023/08/07 12:47:07;;;;;;;24.07;22.13;;;;;;;;;;5095775;28;20479;-81
2023/08/07 12:49:34;;;;;;;25.37;23.60;;;;;;;;;;5096036;28;20998;-81
2023/08/07 12:52:01;;;;;;;26.17;24.33;;;;;;;;;;5096195;28;20437;-80
2023/08/07 12:54:28;;;;;;;26.20;24.40;;;;;;;;;;5095235;28;20441;-83
2023/08/07 12:56:56;;;;;;;28.57;26.67;;;;;;;;;;5096654;28;20469;-80
2023/08/07 12:59:23;;;;;;;27.83;25.87;;;;;;;;;;5096654;28;20433;-80
2023/08/07 13:01:50;;;;;;;27.37;25.00;;;;;;;;;;5096058;28;20481;-80
2023/08/07 13:04:18;;;;;;;26.87;24.70;;;;;;;;;;5095899;28;20548;-81
2023/08/07 13:06:45;;;;;;;27.30;25.33;;;;;;;;;;5096662;28;20461;-80
2023/08/07 13:09:13;;;;;;;26.63;25.03;;;;;;;;;;5095945;28;20439;-82
2023/08/07 13:11:40;;;;;;;26.17;24.73;;;;;;;;;;5096288;28;20468;-81
2023/08/07 13:14:07;;;;;;;25.80;24.40;;;;;;;;;;5094950;28;20451;-81
2023/08/07 13:16:34;;;;;;;25.30;23.70;;;;;;;;;;5095755;28;20495;-81
2023/08/07 13:19:01;;;;;;;26.53;24.57;;;;;;;;;;5096059;28;20441;-82
2023/08/07 13:21:29;;;;;;;26.67;25.07;;;;;;;;;;5093630;28;20440;-82
2023/08/07 13:23:56;;;;;;;26.27;25.07;;;;;;;;;;5094150;28;20473;-82
2023/08/07 13:26:23;;;;;;;28.27;26.63;;;;;;;;;;5095486;28;20858;-81
2023/08/07 13:28:50;;;;;;;26.80;25.27;;;;;;;;;;5083646;28;20823;-82
2023/08/07 13:31:17;;;;;;;27.90;26.23;;;;;;;;;;5096157;28;20437;-82
2023/08/07 13:33:45;;;;;;;28.63;26.70;;;;;;;;;;5096068;28;20445;-83
2023/08/07 13:36:12;;;;;;;30.07;28.37;;;;;;;;;;5097036;28;20460;-82
2023/08/07 13:38:40;;;;;;;35.87;33.57;;;;;;;;;;5095690;28;20461;-83
2023/08/07 13:41:07;;;;;;;31.77;29.97;;;;;;;;;;5100909;28;20437;-82
2023/08/07 13:43:34;;;;;;;32.30;30.07;;;;;;;;;;5097057;28;20840;-82
2023/08/07 13:46:01;;;;;;;31.10;29.40;;;;;;;;;;5098528;28;20542;-82
2023/08/07 13:48:29;;;;;;;30.37;28.40;;;;;;;;;;5097314;28;20449;-82
2023/08/07 13:50:56;;;;;;;30.77;28.97;;;;;;;;;;5099471;28;20559;-83
2023/08/07 13:53:28;;;;;;;29.77;27.90;;;;;;;;;;5101857;28;20452;-82
2023/08/07 13:55:57;;;;;;;28.20;26.23;;;;;;;;;;5095085;28;20461;-82
2023/08/07 13:58:24;;;;;;;29.10;27.47;;;;;;;;;;5085023;28;20461;-83
2023/08/07 14:00:51;;;;;;;28.17;26.67;;;;;;;;;;5094282;28;20461;-83
2023/08/07 14:03:18;;;;;;;30.20;28.47;;;;;;;;;;5095755;28;20516;-83
2023/08/07 14:05:45;;;;;;;30.90;29.17;;;;;;;;;;5096100;28;20461;-84
2023/08/07 14:08:12;;;;;;;27.83;26.10;;;;;;;;;;5095732;28;20444;-83
2023/08/07 14:10:40;;;;;;;28.93;26.97;;;;;;;;;;5096578;28;20774;-82
2023/08/07 14:13:09;;;;;;;26.10;24.70;;;;;;;;;;5094162;28;20457;-83
2023/08/07 14:15:36;;;;;;;26.03;24.73;;;;;;;;;;5094476;28;20524;-84
2023/08/07 14:18:03;;;;;;;25.73;24.30;;;;;;;;;;5095879;28;20449;-82
2023/08/07 14:20:30;;;;;;;26.27;24.83;;;;;;;;;;5095446;28;20456;-84